Terminal Aerodrome Forecast
Issued by NWS Boston, MA

Home | Current Version | Previous Version | Text Only | Print | Product List | Glossary On
Versions: 1 2 3 4 5 6 7 8 9 10 11 12 13 14 15 16 17 18 19 20 21 22 23 24 25 26 27 28 29 30 31 32 33 34 35 36 37 38 39 40 41 42 43 44 45 46
000
FTUS41 KBOX 121120
TAFORH
TAF
KORH 121120Z 1212/1312 10005KT P6SM SCT025 OVC050
     FM121300 12006KT 3SM -FZRASNPL BR OVC025
     FM121600 13006KT 2SM -RA BR OVC015
     FM122100 18006KT 3/4SM BR VCSH OVC008
     FM130000 25006KT P6SM OVC010
     FM130600 27010KT P6SM BKN040
     FM131000 27012KT P6SM BKN025=

USA.gov is the U.S. government's official web portal to all federal, state and local government web resources and services.